sensor_id;sensor_type;location;lat;lon;timestamp;pressure;altitude;pressure_sealevel;temperature;humidity
44297;BME280;51842;47.450;8.654;2022-12-10T00:01:50;94159.78;;;-0.31;100.00
44297;BME280;51842;47.450;8.654;2022-12-10T00:04:17;94156.38;;;-0.31;100.00
44297;BME280;51842;47.450;8.654;2022-12-10T00:06:44;94160.91;;;-0.27;100.00
44297;BME280;51842;47.450;8.654;2022-12-10T00:09:20;94161.22;;;-0.23;100.00
44297;BME280;51842;47.450;8.654;2022-12-10T00:11:49;94153.69;;;-0.19;100.00
44297;BME280;51842;47.450;8.654;2022-12-10T00:14:22;94148.13;;;-0.23;100.00
44297;BME280;51842;47.450;8.654;2022-12-10T00:16:51;94149.97;;;-0.24;100.00
44297;BME280;51842;47.450;8.654;2022-12-10T00:19:19;94139.50;;;-0.24;100.00
44297;BME280;51842;47.450;8.654;2022-12-10T00:21:45;94133.47;;;-0.24;100.00
44297;BME280;51842;47.450;8.654;2022-12-10T00:24:11;94133.69;;;-0.26;100.00
44297;BME280;51842;47.450;8.654;2022-12-10T00:26:56;94135.31;;;-0.25;100.00
44297;BME280;51842;47.450;8.654;2022-12-10T00:29:22;94139.03;;;-0.20;100.00
44297;BME280;51842;47.450;8.654;2022-12-10T00:31:57;94129.28;;;-0.25;100.00
44297;BME280;51842;47.450;8.654;2022-12-10T00:34:23;94131.06;;;-0.26;100.00
44297;BME280;51842;47.450;8.654;2022-12-10T00:36:49;94141.31;;;-0.24;100.00
44297;BME280;51842;47.450;8.654;2022-12-10T00:39:23;94138.72;;;-0.24;100.00
44297;BME280;51842;47.450;8.654;2022-12-10T00:41:49;94138.13;;;-0.26;100.00
44297;BME280;51842;47.450;8.654;2022-12-10T00:44:21;94127.59;;;-0.31;100.00
44297;BME280;51842;47.450;8.654;2022-12-10T00:46:46;94121.53;;;-0.32;100.00
44297;BME280;51842;47.450;8.654;2022-12-10T00:49:13;94124.41;;;-0.33;100.00
44297;BME280;51842;47.450;8.654;2022-12-10T00:51:39;94116.31;;;-0.32;100.00
44297;BME280;51842;47.450;8.654;2022-12-10T00:54:05;94118.13;;;-0.32;100.00
44297;BME280;51842;47.450;8.654;2022-12-10T00:56:34;94116.53;;;-0.33;100.00
44297;BME280;51842;47.450;8.654;2022-12-10T00:59:06;94114.41;;;-0.36;100.00
44297;BME280;51842;47.450;8.654;2022-12-10T01:01:41;94123.03;;;-0.36;100.00
44297;BME280;51842;47.450;8.654;2022-12-10T01:04:15;94137.94;;;-0.36;100.00
44297;BME280;51842;47.450;8.654;2022-12-10T01:06:51;94136.69;;;-0.34;100.00
44297;BME280;51842;47.450;8.654;2022-12-10T01:09:24;94143.03;;;-0.30;100.00
44297;BME280;51842;47.450;8.654;2022-12-10T01:11:52;94137.22;;;-0.32;100.00
44297;BME280;51842;47.450;8.654;2022-12-10T01:14:25;94132.25;;;-0.33;100.00
44297;BME280;51842;47.450;8.654;2022-12-10T01:17:03;94127.47;;;-0.36;100.00
44297;BME280;51842;47.450;8.654;2022-12-10T01:19:31;94131.66;;;-0.35;100.00
44297;BME280;51842;47.450;8.654;2022-12-10T01:21:58;94140.31;;;-0.35;100.00
44297;BME280;51842;47.450;8.654;2022-12-10T01:24:27;94146.00;;;-0.38;100.00
44297;BME280;51842;47.450;8.654;2022-12-10T01:26:56;94149.66;;;-0.39;100.00
44297;BME280;51842;47.450;8.654;2022-12-10T01:29:23;94152.59;;;-0.35;100.00
44297;BME280;51842;47.450;8.654;2022-12-10T01:31:54;94143.75;;;-0.34;100.00
44297;BME280;51842;47.450;8.654;2022-12-10T01:34:21;94148.16;;;-0.35;100.00
44297;BME280;51842;47.450;8.654;2022-12-10T01:36:53;94150.22;;;-0.37;100.00
44297;BME280;51842;47.450;8.654;2022-12-10T01:39:22;94146.59;;;-0.36;100.00
44297;BME280;51842;47.450;8.654;2022-12-10T01:41:58;94155.00;;;-0.34;100.00
44297;BME280;51842;47.450;8.654;2022-12-10T01:46:57;94148.53;;;-0.31;100.00
44297;BME280;51842;47.450;8.654;2022-12-10T01:49:37;94156.38;;;-0.31;100.00
44297;BME280;51842;47.450;8.654;2022-12-10T01:52:09;94150.69;;;-0.28;100.00
44297;BME280;51842;47.450;8.654;2022-12-10T01:54:43;94145.78;;;-0.25;100.00
44297;BME280;51842;47.450;8.654;2022-12-10T01:57:38;94143.63;;;-0.28;100.00
44297;BME280;51842;47.450;8.654;2022-12-10T02:00:06;94151.22;;;-0.26;100.00
44297;BME280;51842;47.450;8.654;2022-12-10T02:05:26;94167.94;;;-0.15;100.00
44297;BME280;51842;47.450;8.654;2022-12-10T02:11:17;94168.03;;;-0.10;100.00
44297;BME280;51842;47.450;8.654;2022-12-10T02:16:38;94158.13;;;-0.08;100.00
44297;BME280;51842;47.450;8.654;2022-12-10T02:22:07;94160.84;;;-0.03;100.00
44297;BME280;51842;47.450;8.654;2022-12-10T02:24:37;94167.66;;;-0.02;100.00
44297;BME280;51842;47.450;8.654;2022-12-10T02:27:34;94163.78;;;0.01;100.00
44297;BME280;51842;47.450;8.654;2022-12-10T02:30:13;94157.50;;;0.02;100.00
44297;BME280;51842;47.450;8.654;2022-12-10T02:32:46;94165.94;;;0.04;100.00
44297;BME280;51842;47.450;8.654;2022-12-10T02:35:27;94165.13;;;0.03;100.00
44297;BME280;51842;47.450;8.654;2022-12-10T02:38:09;94166.94;;;0.03;100.00
44297;BME280;51842;47.450;8.654;2022-12-10T02:40:39;94164.66;;;0.06;100.00
44297;BME280;51842;47.450;8.654;2022-12-10T02:43:13;94160.25;;;0.07;100.00
44297;BME280;51842;47.450;8.654;2022-12-10T02:45:44;94155.00;;;0.07;100.00
44297;BME280;51842;47.450;8.654;2022-12-10T02:48:19;94147.84;;;0.02;100.00
44297;BME280;51842;47.450;8.654;2022-12-10T02:50:45;94155.94;;;0.01;100.00
44297;BME280;51842;47.450;8.654;2022-12-10T02:53:14;94147.28;;;0.00;100.00
44297;BME280;51842;47.450;8.654;2022-12-10T02:56:27;94140.69;;;-0.03;100.00
44297;BME280;51842;47.450;8.654;2022-12-10T03:02:13;94139.44;;;0.00;100.00
44297;BME280;51842;47.450;8.654;2022-12-10T03:10:50;94149.34;;;-0.02;100.00
44297;BME280;51842;47.450;8.654;2022-12-10T03:13:29;94138.06;;;-0.03;100.00
44297;BME280;51842;47.450;8.654;2022-12-10T03:15:58;94150.38;;;-0.03;100.00
44297;BME280;51842;47.450;8.654;2022-12-10T03:18:26;94138.28;;;-0.04;100.00
44297;BME280;51842;47.450;8.654;2022-12-10T03:20:58;94141.47;;;-0.02;100.00
44297;BME280;51842;47.450;8.654;2022-12-10T03:23:28;94126.56;;;-0.02;100.00
44297;BME280;51842;47.450;8.654;2022-12-10T03:25:55;94128.84;;;-0.05;100.00
44297;BME280;51842;47.450;8.654;2022-12-10T03:28:28;94113.38;;;-0.07;100.00
44297;BME280;51842;47.450;8.654;2022-12-10T03:30:57;94118.53;;;-0.12;100.00
44297;BME280;51842;47.450;8.654;2022-12-10T03:33:27;94109.53;;;-0.16;100.00
44297;BME280;51842;47.450;8.654;2022-12-10T03:35:53;94119.47;;;-0.18;100.00
44297;BME280;51842;47.450;8.654;2022-12-10T03:38:19;94126.53;;;-0.18;100.00
44297;BME280;51842;47.450;8.654;2022-12-10T03:40:45;94121.63;;;-0.15;100.00
44297;BME280;51842;47.450;8.654;2022-12-10T03:43:17;94115.22;;;-0.19;100.00
44297;BME280;51842;47.450;8.654;2022-12-10T03:45:46;94129.81;;;-0.23;100.00
44297;BME280;51842;47.450;8.654;2022-12-10T03:48:17;94134.13;;;-0.17;100.00
44297;BME280;51842;47.450;8.654;2022-12-10T03:50:43;94132.53;;;-0.18;100.00
44297;BME280;51842;47.450;8.654;2022-12-10T03:53:15;94134.03;;;-0.22;100.00
44297;BME280;51842;47.450;8.654;2022-12-10T03:55:47;94139.50;;;-0.24;100.00
44297;BME280;51842;47.450;8.654;2022-12-10T03:58:34;94131.91;;;-0.25;100.00
44297;BME280;51842;47.450;8.654;2022-12-10T04:01:00;94122.34;;;-0.31;100.00
44297;BME280;51842;47.450;8.654;2022-12-10T04:03:28;94129.16;;;-0.30;100.00
44297;BME280;51842;47.450;8.654;2022-12-10T04:05:53;94135.66;;;-0.33;100.00
44297;BME280;51842;47.450;8.654;2022-12-10T04:08:19;94143.28;;;-0.31;100.00
44297;BME280;51842;47.450;8.654;2022-12-10T04:10:45;94133.16;;;-0.28;100.00
44297;BME280;51842;47.450;8.654;2022-12-10T04:13:11;94138.59;;;-0.29;100.00
44297;BME280;51842;47.450;8.654;2022-12-10T04:15:57;94142.25;;;-0.30;100.00
44297;BME280;51842;47.450;8.654;2022-12-10T04:18:41;94156.38;;;-0.31;100.00
44297;BME280;51842;47.450;8.654;2022-12-10T04:21:07;94139.06;;;-0.32;100.00
44297;BME280;51842;47.450;8.654;2022-12-10T04:23:51;94134.41;;;-0.30;100.00
44297;BME280;51842;47.450;8.654;2022-12-10T04:26:35;94130.88;;;-0.36;100.00
44297;BME280;51842;47.450;8.654;2022-12-10T04:29:22;94121.81;;;-0.45;100.00
44297;BME280;51842;47.450;8.654;2022-12-10T04:31:52;94125.91;;;-0.49;100.00
44297;BME280;51842;47.450;8.654;2022-12-10T04:34:19;94117.81;;;-0.48;100.00
44297;BME280;51842;47.450;8.654;2022-12-10T04:39:13;94130.69;;;-0.46;100.00
44297;BME280;51842;47.450;8.654;2022-12-10T04:42:00;94139.31;;;-0.45;100.00
44297;BME280;51842;47.450;8.654;2022-12-10T04:44:29;94147.50;;;-0.42;100.00
44297;BME280;51842;47.450;8.654;2022-12-10T04:46:55;94143.06;;;-0.41;100.00
44297;BME280;51842;47.450;8.654;2022-12-10T04:49:21;94143.31;;;-0.43;100.00
44297;BME280;51842;47.450;8.654;2022-12-10T04:51:48;94143.06;;;-0.41;100.00
44297;BME280;51842;47.450;8.654;2022-12-10T04:54:14;94140.44;;;-0.41;100.00
44297;BME280;51842;47.450;8.654;2022-12-10T04:56:49;94129.44;;;-0.43;100.00
44297;BME280;51842;47.450;8.654;2022-12-10T04:59:16;94126.56;;;-0.42;100.00
44297;BME280;51842;47.450;8.654;2022-12-10T05:01:48;94129.19;;;-0.42;100.00
44297;BME280;51842;47.450;8.654;2022-12-10T05:04:18;94141.69;;;-0.44;100.00
44297;BME280;51842;47.450;8.654;2022-12-10T05:06:48;94136.25;;;-0.42;100.00
44297;BME280;51842;47.450;8.654;2022-12-10T05:09:17;94141.63;;;-0.49;100.00
44297;BME280;51842;47.450;8.654;2022-12-10T05:11:43;94142.28;;;-0.54;100.00
44297;BME280;51842;47.450;8.654;2022-12-10T05:14:14;94146.28;;;-0.51;100.00
44297;BME280;51842;47.450;8.654;2022-12-10T05:16:41;94143.91;;;-0.53;100.00
44297;BME280;51842;47.450;8.654;2022-12-10T05:19:10;94137.88;;;-0.53;100.00
44297;BME280;51842;47.450;8.654;2022-12-10T05:21:36;94144.78;;;-0.47;100.00
44297;BME280;51842;47.450;8.654;2022-12-10T05:24:21;94153.19;;;-0.45;100.00
44297;BME280;51842;47.450;8.654;2022-12-10T05:26:49;94152.97;;;-0.43;100.00
44297;BME280;51842;47.450;8.654;2022-12-10T05:29:19;94157.41;;;-0.44;100.00
44297;BME280;51842;47.450;8.654;2022-12-10T05:31:52;94160.00;;;-0.44;100.00
44297;BME280;51842;47.450;8.654;2022-12-10T05:34:20;94157.06;;;-0.48;100.00
44297;BME280;51842;47.450;8.654;2022-12-10T05:36:46;94164.25;;;-0.43;100.00
44297;BME280;51842;47.450;8.654;2022-12-10T05:39:18;94153.53;;;-0.41;100.00
44297;BME280;51842;47.450;8.654;2022-12-10T05:41:46;94151.94;;;-0.42;100.00
44297;BME280;51842;47.450;8.654;2022-12-10T05:44:13;94162.41;;;-0.42;100.00
44297;BME280;51842;47.450;8.654;2022-12-10T05:46:42;94162.41;;;-0.42;100.00
44297;BME280;51842;47.450;8.654;2022-12-10T05:49:07;94169.22;;;-0.41;100.00
44297;BME280;51842;47.450;8.654;2022-12-10T05:51:37;94171.63;;;-0.40;100.00
44297;BME280;51842;47.450;8.654;2022-12-10T05:54:06;94177.88;;;-0.41;100.00
44297;BME280;51842;47.450;8.654;2022-12-10T05:56:32;94174.69;;;-0.43;100.00
44297;BME280;51842;47.450;8.654;2022-12-10T05:59:01;94171.06;;;-0.42;100.00
44297;BME280;51842;47.450;8.654;2022-12-10T06:01:32;94181.63;;;-0.37;100.00
44297;BME280;51842;47.450;8.654;2022-12-10T06:04:04;94175.94;;;-0.34;100.00
44297;BME280;51842;47.450;8.654;2022-12-10T06:06:34;94175.69;;;-0.32;100.00
44297;BME280;51842;47.450;8.654;2022-12-10T06:09:13;94177.31;;;-0.31;100.00
44297;BME280;51842;47.450;8.654;2022-12-10T06:11:39;94178.44;;;-0.27;100.00
44297;BME280;51842;47.450;8.654;2022-12-10T06:14:05;94183.19;;;-0.24;100.00
44297;BME280;51842;47.450;8.654;2022-12-10T06:16:31;94181.63;;;-0.25;100.00
44297;BME280;51842;47.450;8.654;2022-12-10T06:18:57;94178.75;;;-0.24;100.00
44297;BME280;51842;47.450;8.654;2022-12-10T06:21:26;94163.63;;;-0.21;100.00
44297;BME280;51842;47.450;8.654;2022-12-10T06:23:53;94171.69;;;-0.23;100.00
44297;BME280;51842;47.450;8.654;2022-12-10T06:26:23;94180.34;;;-0.22;100.00
44297;BME280;51842;47.450;8.654;2022-12-10T06:28:50;94192.75;;;-0.18;100.00
44297;BME280;51842;47.450;8.654;2022-12-10T06:31:17;94195.91;;;-0.16;100.00
44297;BME280;51842;47.450;8.654;2022-12-10T06:33:50;94194.66;;;-0.13;100.00
44297;BME280;51842;47.450;8.654;2022-12-10T06:36:17;94202.28;;;-0.12;100.00
44297;BME280;51842;47.450;8.654;2022-12-10T06:38:44;94200.34;;;-0.16;100.00
44297;BME280;51842;47.450;8.654;2022-12-10T06:41:16;94197.97;;;-0.18;100.00
44297;BME280;51842;47.450;8.654;2022-12-10T06:43:42;94197.19;;;-0.18;100.00
44297;BME280;51842;47.450;8.654;2022-12-10T06:46:12;94197.72;;;-0.16;100.00
44297;BME280;51842;47.450;8.654;2022-12-10T06:48:39;94198.78;;;-0.17;100.00
44297;BME280;51842;47.450;8.654;2022-12-10T06:51:11;94195.81;;;-0.21;100.00
44297;BME280;51842;47.450;8.654;2022-12-10T06:53:41;94200.81;;;-0.19;100.00
44297;BME280;51842;47.450;8.654;2022-12-10T06:56:11;94208.13;;;-0.21;100.00
44297;BME280;51842;47.450;8.654;2022-12-10T06:58:37;94212.31;;;-0.20;100.00
44297;BME280;51842;47.450;8.654;2022-12-10T07:01:13;94218.81;;;-0.23;100.00
44297;BME280;51842;47.450;8.654;2022-12-10T07:03:42;94215.97;;;-0.21;100.00
44297;BME280;51842;47.450;8.654;2022-12-10T07:06:11;94218.34;;;-0.20;100.00
44297;BME280;51842;47.450;8.654;2022-12-10T07:08:40;94216.31;;;-0.18;100.00
44297;BME280;51842;47.450;8.654;2022-12-10T07:11:12;94225.41;;;-0.20;100.00
44297;BME280;51842;47.450;8.654;2022-12-10T07:13:39;94228.03;;;-0.20;100.00
44297;BME280;51842;47.450;8.654;2022-12-10T07:16:29;94225.16;;;-0.19;100.00
44297;BME280;51842;47.450;8.654;2022-12-10T07:18:58;94223.13;;;-0.17;100.00
44297;BME280;51842;47.450;8.654;2022-12-10T07:23:54;94218.69;;;-0.16;100.00
44297;BME280;51842;47.450;8.654;2022-12-10T07:26:21;94227.56;;;-0.17;100.00
44297;BME280;51842;47.450;8.654;2022-12-10T07:28:47;94216.84;;;-0.16;100.00
44297;BME280;51842;47.450;8.654;2022-12-10T07:31:13;94221.06;;;-0.15;100.00
44297;BME280;51842;47.450;8.654;2022-12-10T07:33:42;94223.00;;;-0.10;100.00
44297;BME280;51842;47.450;8.654;2022-12-10T07:36:11;94234.81;;;-0.08;100.00
44297;BME280;51842;47.450;8.654;2022-12-10T07:38:37;94231.16;;;-0.07;100.00
44297;BME280;51842;47.450;8.654;2022-12-10T07:41:06;94230.06;;;-0.11;100.00
44297;BME280;51842;47.450;8.654;2022-12-10T07:43:39;94226.75;;;-0.06;100.00
44297;BME280;51842;47.450;8.654;2022-12-10T07:48:43;94234.47;;;0.01;100.00
44297;BME280;51842;47.450;8.654;2022-12-10T07:51:09;94234.81;;;0.04;100.00
44297;BME280;51842;47.450;8.654;2022-12-10T07:53:36;94235.72;;;0.10;100.00
44297;BME280;51842;47.450;8.654;2022-12-10T07:56:03;94237.88;;;0.13;100.00
44297;BME280;51842;47.450;8.654;2022-12-10T07:58:32;94238.03;;;-0.06;100.00
44297;BME280;51842;47.450;8.654;2022-12-10T08:00:58;94244.72;;;0.02;100.00
44297;BME280;51842;47.450;8.654;2022-12-10T08:03:24;94247.44;;;0.07;100.00
44297;BME280;51842;47.450;8.654;2022-12-10T08:06:11;94246.84;;;0.17;100.00
44297;BME280;51842;47.450;8.654;2022-12-10T08:08:42;94256.06;;;0.19;100.00
44297;BME280;51842;47.450;8.654;2022-12-10T08:11:12;94258.91;;;0.18;100.00
44297;BME280;51842;47.450;8.654;2022-12-10T08:13:39;94268.22;;;0.26;100.00
44297;BME280;51842;47.450;8.654;2022-12-10T08:16:17;94268.09;;;0.32;100.00
44297;BME280;51842;47.450;8.654;2022-12-10T08:18:44;94278.66;;;0.37;100.00
44297;BME280;51842;47.450;8.654;2022-12-10T08:21:18;94285.72;;;0.37;100.00
44297;BME280;51842;47.450;8.654;2022-12-10T08:23:45;94278.19;;;0.40;100.00
44297;BME280;51842;47.450;8.654;2022-12-10T08:26:15;94280.72;;;0.35;100.00
44297;BME280;51842;47.450;8.654;2022-12-10T08:28:46;94283.78;;;0.44;100.00
44297;BME280;51842;47.450;8.654;2022-12-10T08:31:14;94284.91;;;0.48;100.00
44297;BME280;51842;47.450;8.654;2022-12-10T08:33:44;94284.91;;;0.48;100.00
44297;BME280;51842;47.450;8.654;2022-12-10T08:36:16;94287.06;;;0.51;100.00
44297;BME280;51842;47.450;8.654;2022-12-10T08:38:46;94295.72;;;0.52;100.00
44297;BME280;51842;47.450;8.654;2022-12-10T08:41:19;94297.88;;;0.55;100.00
44297;BME280;51842;47.450;8.654;2022-12-10T08:43:50;94302.19;;;0.61;100.00
44297;BME280;51842;47.450;8.654;2022-12-10T08:46:16;94305.47;;;0.56;100.00
44297;BME280;51842;47.450;8.654;2022-12-10T08:48:43;94305.84;;;0.60;100.00
44297;BME280;51842;47.450;8.654;2022-12-10T08:51:14;94304.34;;;0.64;100.00
44297;BME280;51842;47.450;8.654;2022-12-10T08:53:49;94316.19;;;0.66;100.00
44297;BME280;51842;47.450;8.654;2022-12-10T08:56:17;94304.84;;;0.78;100.00
44297;BME280;51842;47.450;8.654;2022-12-10T08:58:43;94308.31;;;0.95;100.00
44297;BME280;51842;47.450;8.654;2022-12-10T09:01:13;94310.88;;;1.07;100.00
44297;BME280;51842;47.450;8.654;2022-12-10T09:03:39;94309.78;;;1.20;100.00
44297;BME280;51842;47.450;8.654;2022-12-10T09:06:09;94309.94;;;1.30;99.62
44297;BME280;51842;47.450;8.654;2022-12-10T09:08:38;94319.59;;;1.41;99.37
44297;BME280;51842;47.450;8.654;2022-12-10T09:13:32;94327.06;;;1.49;97.04
44297;BME280;51842;47.450;8.654;2022-12-10T09:15:58;94330.66;;;1.60;97.47
44297;BME280;51842;47.450;8.654;2022-12-10T09:18:24;94338.19;;;1.56;96.60
44297;BME280;51842;47.450;8.654;2022-12-10T09:20:53;94341.44;;;1.47;96.13
44297;BME280;51842;47.450;8.654;2022-12-10T09:23:22;94339.44;;;1.37;95.93
44297;BME280;51842;47.450;8.654;2022-12-10T09:25:57;94342.78;;;1.32;96.43
44297;BME280;51842;47.450;8.654;2022-12-10T09:28:23;94346.19;;;1.33;96.63
44297;BME280;51842;47.450;8.654;2022-12-10T09:31:01;94354.22;;;1.26;96.54
44297;BME280;51842;47.450;8.654;2022-12-10T09:33:30;94353.56;;;1.19;96.97
44297;BME280;51842;47.450;8.654;2022-12-10T09:35:59;94364.78;;;1.14;96.91
44297;BME280;51842;47.450;8.654;2022-12-10T09:38:25;94364.91;;;1.08;97.41
44297;BME280;51842;47.450;8.654;2022-12-10T09:44:00;94365.53;;;0.98;97.46
44297;BME280;51842;47.450;8.654;2022-12-10T09:49:46;94369.16;;;0.97;97.66
44297;BME280;51842;47.450;8.654;2022-12-10T09:52:25;94369.44;;;1.12;97.54
44297;BME280;51842;47.450;8.654;2022-12-10T09:55:36;94359.84;;;1.18;96.53
44297;BME280;51842;47.450;8.654;2022-12-10T09:58:05;94356.06;;;1.26;96.75
44297;BME280;51842;47.450;8.654;2022-12-10T10:00:59;94366.16;;;1.34;96.29
44297;BME280;51842;47.450;8.654;2022-12-10T10:03:26;94360.69;;;1.35;95.40
44297;BME280;51842;47.450;8.654;2022-12-10T10:05:56;94357.91;;;1.42;95.60
44297;BME280;51842;47.450;8.654;2022-12-10T10:08:36;94365.63;;;1.49;95.35
44297;BME280;51842;47.450;8.654;2022-12-10T10:11:16;94364.84;;;1.65;94.62
44297;BME280;51842;47.450;8.654;2022-12-10T10:14:18;94363.03;;;1.82;94.08
44297;BME280;51842;47.450;8.654;2022-12-10T10:16:55;94366.75;;;1.87;93.61
44297;BME280;51842;47.450;8.654;2022-12-10T10:19:31;94367.69;;;1.97;93.69
44297;BME280;51842;47.450;8.654;2022-12-10T10:22:00;94377.41;;;1.97;92.84
44297;BME280;51842;47.450;8.654;2022-12-10T10:24:41;94383.31;;;2.04;92.51
44297;BME280;51842;47.450;8.654;2022-12-10T10:27:29;94382.19;;;2.00;90.71
44297;BME280;51842;47.450;8.654;2022-12-10T10:29:59;94377.22;;;2.03;90.96
44297;BME280;51842;47.450;8.654;2022-12-10T10:35:45;94373.03;;;2.02;91.40
44297;BME280;51842;47.450;8.654;2022-12-10T10:38:26;94379.66;;;1.88;90.78
44297;BME280;51842;47.450;8.654;2022-12-10T10:41:02;94385.53;;;1.78;91.17
44297;BME280;51842;47.450;8.654;2022-12-10T10:43:40;94390.06;;;1.66;91.51
44297;BME280;51842;47.450;8.654;2022-12-10T10:46:21;94396.97;;;1.55;92.48
44297;BME280;51842;47.450;8.654;2022-12-10T10:48:50;94394.06;;;1.40;93.47
44297;BME280;51842;47.450;8.654;2022-12-10T10:51:21;94389.41;;;1.13;94.01
44297;BME280;51842;47.450;8.654;2022-12-10T10:53:56;94391.09;;;0.91;95.45
44297;BME280;51842;47.450;8.654;2022-12-10T10:56:29;94385.84;;;0.91;95.93
44297;BME280;51842;47.450;8.654;2022-12-10T10:59:30;94382.56;;;0.84;96.15
44297;BME280;51842;47.450;8.654;2022-12-10T11:02:42;94385.28;;;0.89;96.61
44297;BME280;51842;47.450;8.654;2022-12-10T11:05:31;94389.72;;;0.88;96.62
44297;BME280;51842;47.450;8.654;2022-12-10T11:08:17;94388.84;;;0.83;97.22
44297;BME280;51842;47.450;8.654;2022-12-10T11:11:01;94393.31;;;0.71;97.07
44297;BME280;51842;47.450;8.654;2022-12-10T11:13:34;94385.19;;;0.72;97.98
44297;BME280;51842;47.450;8.654;2022-12-10T11:16:15;94391.69;;;0.81;97.44
44297;BME280;51842;47.450;8.654;2022-12-10T11:19:22;94395.63;;;0.96;97.18
44297;BME280;51842;47.450;8.654;2022-12-10T11:21:49;94401.53;;;1.03;95.72
44297;BME280;51842;47.450;8.654;2022-12-10T11:24:19;94400.06;;;1.07;94.74
44297;BME280;51842;47.450;8.654;2022-12-10T11:27:16;94401.34;;;1.21;94.87
44297;BME280;51842;47.450;8.654;2022-12-10T11:30:24;94393.72;;;1.20;93.72
44297;BME280;51842;47.450;8.654;2022-12-10T11:33:33;94399.19;;;1.18;92.63
44297;BME280;51842;47.450;8.654;2022-12-10T11:39:51;94406.53;;;1.16;91.44
44297;BME280;51842;47.450;8.654;2022-12-10T11:43:13;94418.75;;;1.10;91.46
44297;BME280;51842;47.450;8.654;2022-12-10T11:52:10;94416.38;;;0.97;92.08
44297;BME280;51842;47.450;8.654;2022-12-10T11:58:58;94428.31;;;0.64;93.38
44297;BME280;51842;47.450;8.654;2022-12-10T12:07:23;94436.19;;;0.53;93.09
44297;BME280;51842;47.450;8.654;2022-12-10T12:13:18;94444.16;;;0.46;93.93
44297;BME280;51842;47.450;8.654;2022-12-10T12:16:42;94448.72;;;0.39;94.12
44297;BME280;51842;47.450;8.654;2022-12-10T12:19:25;94450.44;;;0.21;95.05
44297;BME280;51842;47.450;8.654;2022-12-10T12:21:55;94459.09;;;0.22;94.95
44297;BME280;51842;47.450;8.654;2022-12-10T12:24:38;94463.53;;;0.21;95.19
44297;BME280;51842;47.450;8.654;2022-12-10T12:27:47;94466.97;;;0.22;95.36
44297;BME280;51842;47.450;8.654;2022-12-10T12:30:23;94467.16;;;0.20;95.55
44297;BME280;51842;47.450;8.654;2022-12-10T12:36:09;94472.19;;;0.22;95.05
44297;BME280;51842;47.450;8.654;2022-12-10T12:39:34;94471.72;;;0.13;94.21
44297;BME280;51842;47.450;8.654;2022-12-10T12:42:42;94475.59;;;0.11;94.60
44297;BME280;51842;47.450;8.654;2022-12-10T12:53:36;94479.13;;;0.05;94.39
44297;BME280;51842;47.450;8.654;2022-12-10T12:59:19;94484.34;;;0.05;94.65
44297;BME280;51842;47.450;8.654;2022-12-10T13:02:31;94492.91;;;0.00;94.67
44297;BME280;51842;47.450;8.654;2022-12-10T13:05:04;94497.53;;;-0.02;95.23
44297;BME280;51842;47.450;8.654;2022-12-10T13:07:35;94495.72;;;-0.02;95.48
44297;BME280;51842;47.450;8.654;2022-12-10T13:10:22;94500.50;;;0.02;95.04
44297;BME280;51842;47.450;8.654;2022-12-10T13:15:51;94511.53;;;-0.08;95.10
44297;BME280;51842;47.450;8.654;2022-12-10T13:18:21;94501.44;;;0.07;95.21
44297;BME280;51842;47.450;8.654;2022-12-10T13:24:12;94520.78;;;0.06;94.44
44297;BME280;51842;47.450;8.654;2022-12-10T13:38:18;94531.47;;;0.05;94.96
44297;BME280;51842;47.450;8.654;2022-12-10T13:41:05;94537.97;;;0.02;95.28
44297;BME280;51842;47.450;8.654;2022-12-10T13:44:00;94542.25;;;-0.04;95.32
44297;BME280;51842;47.450;8.654;2022-12-10T13:50:06;94550.09;;;-0.15;95.42
44297;BME280;51842;47.450;8.654;2022-12-10T13:53:11;94556.69;;;-0.13;95.27
44297;BME280;51842;47.450;8.654;2022-12-10T14:07:32;94573.63;;;-0.27;94.32
44297;BME280;51842;47.450;8.654;2022-12-10T14:10:02;94578.50;;;-0.31;94.55
44297;BME280;51842;47.450;8.654;2022-12-10T14:12:37;94571.63;;;-0.32;94.89
44297;BME280;51842;47.450;8.654;2022-12-10T14:15:18;94578.13;;;-0.34;94.78
44297;BME280;51842;47.450;8.654;2022-12-10T14:17:51;94579.13;;;-0.35;94.58
44297;BME280;51842;47.450;8.654;2022-12-10T14:20:24;94585.41;;;-0.36;94.89
44297;BME280;51842;47.450;8.654;2022-12-10T14:22:54;94583.44;;;-0.41;95.05
44297;BME280;51842;47.450;8.654;2022-12-10T14:25:44;94593.34;;;-0.43;95.04
44297;BME280;51842;47.450;8.654;2022-12-10T14:28:17;94594.13;;;-0.42;95.21
44297;BME280;51842;47.450;8.654;2022-12-10T14:30:48;94598.22;;;-0.47;95.27
44297;BME280;51842;47.450;8.654;2022-12-10T14:33:24;94603.09;;;-0.50;95.48
44297;BME280;51842;47.450;8.654;2022-12-10T14:36:06;94599.72;;;-0.57;95.74
44297;BME280;51842;47.450;8.654;2022-12-10T14:38:34;94605.41;;;-0.60;95.97
44297;BME280;51842;47.450;8.654;2022-12-10T14:41:03;94605.75;;;-0.57;95.64
44297;BME280;51842;47.450;8.654;2022-12-10T14:43:36;94606.00;;;-0.58;95.54
44297;BME280;51842;47.450;8.654;2022-12-10T14:46:05;94606.00;;;-0.58;95.95
44297;BME280;51842;47.450;8.654;2022-12-10T14:48:42;94604.84;;;-0.62;95.36
44297;BME280;51842;47.450;8.654;2022-12-10T14:51:23;94609.84;;;-0.61;95.97
44297;BME280;51842;47.450;8.654;2022-12-10T14:53:52;94613.69;;;-0.63;95.90
44297;BME280;51842;47.450;8.654;2022-12-10T14:56:33;94617.91;;;-0.62;95.58
44297;BME280;51842;47.450;8.654;2022-12-10T15:01:58;94624.59;;;-0.66;95.65
44297;BME280;51842;47.450;8.654;2022-12-10T15:04:42;94628.81;;;-0.65;95.88
44297;BME280;51842;47.450;8.654;2022-12-10T15:07:36;94632.44;;;-0.66;95.61
44297;BME280;51842;47.450;8.654;2022-12-10T15:10:13;94642.88;;;-0.66;95.99
44297;BME280;51842;47.450;8.654;2022-12-10T15:12:49;94638.88;;;-0.69;96.21
44297;BME280;51842;47.450;8.654;2022-12-10T15:15:35;94651.41;;;-0.71;96.66
44297;BME280;51842;47.450;8.654;2022-12-10T15:18:16;94646.59;;;-0.74;96.71
44297;BME280;51842;47.450;8.654;2022-12-10T15:20:54;94648.06;;;-0.78;97.58
44297;BME280;51842;47.450;8.654;2022-12-10T15:28:34;94644.50;;;-0.84;97.07
44297;BME280;51842;47.450;8.654;2022-12-10T15:39:17;94645.13;;;-0.88;97.67
44297;BME280;51842;47.450;8.654;2022-12-10T15:41:52;94650.00;;;-0.92;98.35
44297;BME280;51842;47.450;8.654;2022-12-10T15:46:56;94653.25;;;-0.97;98.32